sensor_id;sensor_type;location;lat;lon;timestamp;P1;durP1;ratioP1;P2;durP2;ratioP2
7171;SDS011;3627;46.544;14.944;2023-06-24T00:01:14;7.28;;;4.35;;
7171;SDS011;3627;46.544;14.944;2023-06-24T00:03:40;6.18;;;4.63;;
7171;SDS011;3627;46.544;14.944;2023-06-24T00:06:11;6.38;;;4.57;;
7171;SDS011;3627;46.544;14.944;2023-06-24T00:08:44;7.15;;;4.28;;
7171;SDS011;3627;46.544;14.944;2023-06-24T00:11:11;5.95;;;3.65;;
7171;SDS011;3627;46.544;14.944;2023-06-24T00:13:38;5.78;;;3.92;;
7171;SDS011;3627;46.544;14.944;2023-06-24T00:16:04;5.57;;;3.78;;
7171;SDS011;3627;46.544;14.944;2023-06-24T00:18:31;4.47;;;3.88;;
7171;SDS011;3627;46.544;14.944;2023-06-24T00:20:58;4.95;;;4.18;;
7171;SDS011;3627;46.544;14.944;2023-06-24T00:23:26;5.07;;;4.20;;
7171;SDS011;3627;46.544;14.944;2023-06-24T00:25:54;5.05;;;4.10;;
7171;SDS011;3627;46.544;14.944;2023-06-24T00:28:21;6.75;;;4.07;;
7171;SDS011;3627;46.544;14.944;2023-06-24T00:30:47;5.50;;;4.72;;
7171;SDS011;3627;46.544;14.944;2023-06-24T00:33:14;5.03;;;4.35;;
7171;SDS011;3627;46.544;14.944;2023-06-24T00:35:41;5.63;;;3.92;;
7171;SDS011;3627;46.544;14.944;2023-06-24T00:38:08;7.18;;;4.47;;
7171;SDS011;3627;46.544;14.944;2023-06-24T00:40:34;6.80;;;4.03;;
7171;SDS011;3627;46.544;14.944;2023-06-24T00:43:02;6.00;;;4.22;;
7171;SDS011;3627;46.544;14.944;2023-06-24T00:45:29;6.93;;;4.28;;
7171;SDS011;3627;46.544;14.944;2023-06-24T00:47:56;6.85;;;4.40;;
7171;SDS011;3627;46.544;14.944;2023-06-24T00:50:23;4.82;;;4.10;;
7171;SDS011;3627;46.544;14.944;2023-06-24T00:52:49;4.90;;;3.95;;
7171;SDS011;3627;46.544;14.944;2023-06-24T00:55:16;5.38;;;4.70;;
7171;SDS011;3627;46.544;14.944;2023-06-24T00:57:45;6.47;;;5.00;;
7171;SDS011;3627;46.544;14.944;2023-06-24T01:00:17;6.43;;;4.07;;
7171;SDS011;3627;46.544;14.944;2023-06-24T01:02:46;5.47;;;4.72;;
7171;SDS011;3627;46.544;14.944;2023-06-24T01:05:12;6.20;;;4.43;;
7171;SDS011;3627;46.544;14.944;2023-06-24T01:07:39;5.85;;;4.60;;
7171;SDS011;3627;46.544;14.944;2023-06-24T01:10:06;6.30;;;5.13;;
7171;SDS011;3627;46.544;14.944;2023-06-24T01:12:37;9.27;;;5.15;;
7171;SDS011;3627;46.544;14.944;2023-06-24T01:15:04;6.70;;;5.13;;
7171;SDS011;3627;46.544;14.944;2023-06-24T01:17:34;10.65;;;5.20;;
7171;SDS011;3627;46.544;14.944;2023-06-24T01:20:04;5.50;;;4.97;;
7171;SDS011;3627;46.544;14.944;2023-06-24T01:22:41;6.45;;;4.88;;
7171;SDS011;3627;46.544;14.944;2023-06-24T01:25:14;7.75;;;4.70;;
7171;SDS011;3627;46.544;14.944;2023-06-24T01:30:41;5.93;;;4.97;;
7171;SDS011;3627;46.544;14.944;2023-06-24T01:33:15;6.75;;;4.75;;
7171;SDS011;3627;46.544;14.944;2023-06-24T01:35:44;5.90;;;4.35;;
7171;SDS011;3627;46.544;14.944;2023-06-24T01:38:15;7.45;;;4.97;;
7171;SDS011;3627;46.544;14.944;2023-06-24T01:40:44;9.23;;;5.25;;
7171;SDS011;3627;46.544;14.944;2023-06-24T01:43:11;6.28;;;4.80;;
7171;SDS011;3627;46.544;14.944;2023-06-24T01:45:40;8.57;;;5.25;;
7171;SDS011;3627;46.544;14.944;2023-06-24T01:48:07;9.73;;;5.68;;
7171;SDS011;3627;46.544;14.944;2023-06-24T01:50:36;6.30;;;4.85;;
7171;SDS011;3627;46.544;14.944;2023-06-24T01:53:06;11.43;;;5.55;;
7171;SDS011;3627;46.544;14.944;2023-06-24T01:55:33;5.43;;;4.72;;
7171;SDS011;3627;46.544;14.944;2023-06-24T01:58:01;5.30;;;4.50;;
7171;SDS011;3627;46.544;14.944;2023-06-24T02:00:29;6.45;;;4.70;;
7171;SDS011;3627;46.544;14.944;2023-06-24T02:02:55;8.50;;;5.20;;
7171;SDS011;3627;46.544;14.944;2023-06-24T02:05:22;9.43;;;5.63;;
7171;SDS011;3627;46.544;14.944;2023-06-24T02:07:51;7.43;;;5.55;;
7171;SDS011;3627;46.544;14.944;2023-06-24T02:10:18;6.10;;;4.90;;
7171;SDS011;3627;46.544;14.944;2023-06-24T02:12:45;6.88;;;4.93;;
7171;SDS011;3627;46.544;14.944;2023-06-24T02:15:12;6.78;;;5.45;;
7171;SDS011;3627;46.544;14.944;2023-06-24T02:17:39;6.85;;;5.63;;
7171;SDS011;3627;46.544;14.944;2023-06-24T02:20:06;7.13;;;6.05;;
7171;SDS011;3627;46.544;14.944;2023-06-24T02:22:33;8.65;;;6.70;;
7171;SDS011;3627;46.544;14.944;2023-06-24T02:25:01;7.68;;;6.07;;
7171;SDS011;3627;46.544;14.944;2023-06-24T02:27:28;8.70;;;5.35;;
7171;SDS011;3627;46.544;14.944;2023-06-24T02:29:55;7.60;;;5.57;;
7171;SDS011;3627;46.544;14.944;2023-06-24T02:32:23;8.43;;;5.20;;
7171;SDS011;3627;46.544;14.944;2023-06-24T02:34:49;11.65;;;5.55;;
7171;SDS011;3627;46.544;14.944;2023-06-24T02:37:16;6.25;;;5.30;;
7171;SDS011;3627;46.544;14.944;2023-06-24T02:39:42;6.50;;;5.20;;
7171;SDS011;3627;46.544;14.944;2023-06-24T02:42:11;8.85;;;5.20;;
7171;SDS011;3627;46.544;14.944;2023-06-24T02:44:37;7.40;;;5.72;;
7171;SDS011;3627;46.544;14.944;2023-06-24T02:47:05;7.10;;;4.80;;
7171;SDS011;3627;46.544;14.944;2023-06-24T02:49:32;6.50;;;5.32;;
7171;SDS011;3627;46.544;14.944;2023-06-24T02:51:59;9.65;;;5.43;;
7171;SDS011;3627;46.544;14.944;2023-06-24T02:54:26;9.07;;;6.50;;
7171;SDS011;3627;46.544;14.944;2023-06-24T02:56:52;8.13;;;5.63;;
7171;SDS011;3627;46.544;14.944;2023-06-24T02:59:24;6.60;;;5.80;;
7171;SDS011;3627;46.544;14.944;2023-06-24T03:01:51;7.97;;;5.75;;
7171;SDS011;3627;46.544;14.944;2023-06-24T03:04:18;7.97;;;6.03;;
7171;SDS011;3627;46.544;14.944;2023-06-24T03:06:45;7.15;;;5.90;;
7171;SDS011;3627;46.544;14.944;2023-06-24T03:09:11;9.20;;;5.88;;
7171;SDS011;3627;46.544;14.944;2023-06-24T03:11:41;9.43;;;5.55;;
7171;SDS011;3627;46.544;14.944;2023-06-24T03:14:08;10.60;;;6.53;;
7171;SDS011;3627;46.544;14.944;2023-06-24T03:16:35;11.50;;;7.65;;
7171;SDS011;3627;46.544;14.944;2023-06-24T03:19:03;10.50;;;7.80;;
7171;SDS011;3627;46.544;14.944;2023-06-24T03:21:29;12.38;;;7.30;;
7171;SDS011;3627;46.544;14.944;2023-06-24T03:23:56;8.70;;;6.97;;
7171;SDS011;3627;46.544;14.944;2023-06-24T03:26:24;9.48;;;7.80;;
7171;SDS011;3627;46.544;14.944;2023-06-24T03:28:50;9.18;;;7.10;;
7171;SDS011;3627;46.544;14.944;2023-06-24T03:31:16;7.43;;;6.30;;
7171;SDS011;3627;46.544;14.944;2023-06-24T03:33:44;11.45;;;7.20;;
7171;SDS011;3627;46.544;14.944;2023-06-24T03:36:11;11.15;;;7.25;;
7171;SDS011;3627;46.544;14.944;2023-06-24T03:38:39;9.40;;;7.18;;
7171;SDS011;3627;46.544;14.944;2023-06-24T03:41:05;11.18;;;8.23;;
7171;SDS011;3627;46.544;14.944;2023-06-24T03:43:32;10.50;;;7.53;;
7171;SDS011;3627;46.544;14.944;2023-06-24T03:45:58;8.85;;;7.32;;
7171;SDS011;3627;46.544;14.944;2023-06-24T03:48:25;8.95;;;7.10;;
7171;SDS011;3627;46.544;14.944;2023-06-24T03:50:53;9.85;;;7.43;;
7171;SDS011;3627;46.544;14.944;2023-06-24T03:53:19;7.43;;;6.57;;
7171;SDS011;3627;46.544;14.944;2023-06-24T03:55:45;9.85;;;7.03;;
7171;SDS011;3627;46.544;14.944;2023-06-24T03:58:12;10.25;;;6.70;;
7171;SDS011;3627;46.544;14.944;2023-06-24T04:00:38;7.97;;;5.72;;
7171;SDS011;3627;46.544;14.944;2023-06-24T04:03:05;8.52;;;6.88;;
7171;SDS011;3627;46.544;14.944;2023-06-24T04:05:32;8.77;;;6.43;;
7171;SDS011;3627;46.544;14.944;2023-06-24T04:08:00;8.05;;;6.53;;
7171;SDS011;3627;46.544;14.944;2023-06-24T04:10:31;9.85;;;6.63;;
7171;SDS011;3627;46.544;14.944;2023-06-24T04:12:58;8.73;;;6.30;;
7171;SDS011;3627;46.544;14.944;2023-06-24T04:15:24;7.53;;;6.13;;
7171;SDS011;3627;46.544;14.944;2023-06-24T04:17:50;8.07;;;5.88;;
7171;SDS011;3627;46.544;14.944;2023-06-24T04:20:17;6.93;;;5.93;;
7171;SDS011;3627;46.544;14.944;2023-06-24T04:22:43;7.97;;;5.43;;
7171;SDS011;3627;46.544;14.944;2023-06-24T04:25:11;7.53;;;5.88;;
7171;SDS011;3627;46.544;14.944;2023-06-24T04:27:38;8.50;;;6.38;;
7171;SDS011;3627;46.544;14.944;2023-06-24T04:30:04;8.25;;;6.53;;
7171;SDS011;3627;46.544;14.944;2023-06-24T04:32:31;8.35;;;6.68;;
7171;SDS011;3627;46.544;14.944;2023-06-24T04:34:57;8.98;;;5.97;;
7171;SDS011;3627;46.544;14.944;2023-06-24T04:37:24;8.57;;;5.82;;
7171;SDS011;3627;46.544;14.944;2023-06-24T04:39:50;7.80;;;6.00;;
7171;SDS011;3627;46.544;14.944;2023-06-24T04:42:18;7.32;;;6.20;;
7171;SDS011;3627;46.544;14.944;2023-06-24T04:44:44;7.50;;;5.95;;
7171;SDS011;3627;46.544;14.944;2023-06-24T04:47:11;8.25;;;6.25;;
7171;SDS011;3627;46.544;14.944;2023-06-24T04:49:39;7.30;;;5.93;;
7171;SDS011;3627;46.544;14.944;2023-06-24T04:52:05;9.10;;;6.28;;
7171;SDS011;3627;46.544;14.944;2023-06-24T04:54:32;7.35;;;6.18;;
7171;SDS011;3627;46.544;14.944;2023-06-24T04:56:58;8.63;;;6.45;;
7171;SDS011;3627;46.544;14.944;2023-06-24T04:59:26;8.10;;;5.30;;
7171;SDS011;3627;46.544;14.944;2023-06-24T05:01:53;9.52;;;6.15;;
7171;SDS011;3627;46.544;14.944;2023-06-24T05:04:19;6.70;;;5.97;;
7171;SDS011;3627;46.544;14.944;2023-06-24T05:06:45;6.55;;;5.80;;
7171;SDS011;3627;46.544;14.944;2023-06-24T05:09:12;8.30;;;5.88;;
7171;SDS011;3627;46.544;14.944;2023-06-24T05:11:39;6.85;;;5.15;;
7171;SDS011;3627;46.544;14.944;2023-06-24T05:14:05;6.38;;;5.05;;
7171;SDS011;3627;46.544;14.944;2023-06-24T05:16:33;7.13;;;5.22;;
7171;SDS011;3627;46.544;14.944;2023-06-24T05:19:00;6.93;;;5.63;;
7171;SDS011;3627;46.544;14.944;2023-06-24T05:21:26;6.85;;;4.80;;
7171;SDS011;3627;46.544;14.944;2023-06-24T05:23:52;6.90;;;5.05;;
7171;SDS011;3627;46.544;14.944;2023-06-24T05:26:19;6.15;;;4.60;;
7171;SDS011;3627;46.544;14.944;2023-06-24T05:28:45;7.47;;;5.18;;
7171;SDS011;3627;46.544;14.944;2023-06-24T05:31:12;5.80;;;4.68;;
7171;SDS011;3627;46.544;14.944;2023-06-24T05:33:39;6.80;;;5.38;;
7171;SDS011;3627;46.544;14.944;2023-06-24T05:36:06;7.40;;;4.85;;
7171;SDS011;3627;46.544;14.944;2023-06-24T05:38:32;7.50;;;5.15;;
7171;SDS011;3627;46.544;14.944;2023-06-24T05:40:59;5.95;;;5.05;;
7171;SDS011;3627;46.544;14.944;2023-06-24T05:43:27;6.13;;;4.93;;
7171;SDS011;3627;46.544;14.944;2023-06-24T05:45:54;6.50;;;4.72;;
7171;SDS011;3627;46.544;14.944;2023-06-24T05:48:20;7.45;;;4.70;;
7171;SDS011;3627;46.544;14.944;2023-06-24T05:50:48;4.78;;;4.18;;
7171;SDS011;3627;46.544;14.944;2023-06-24T05:53:14;4.93;;;4.30;;
7171;SDS011;3627;46.544;14.944;2023-06-24T05:55:41;5.88;;;4.70;;
7171;SDS011;3627;46.544;14.944;2023-06-24T05:58:07;6.65;;;5.05;;
7171;SDS011;3627;46.544;14.944;2023-06-24T06:00:34;4.72;;;4.00;;
7171;SDS011;3627;46.544;14.944;2023-06-24T06:03:00;5.80;;;4.78;;
7171;SDS011;3627;46.544;14.944;2023-06-24T06:05:27;5.72;;;4.28;;
7171;SDS011;3627;46.544;14.944;2023-06-24T06:07:54;4.72;;;4.28;;
7171;SDS011;3627;46.544;14.944;2023-06-24T06:10:21;5.20;;;3.78;;
7171;SDS011;3627;46.544;14.944;2023-06-24T06:12:47;5.43;;;4.78;;
7171;SDS011;3627;46.544;14.944;2023-06-24T06:15:14;4.82;;;4.40;;
7171;SDS011;3627;46.544;14.944;2023-06-24T06:17:40;6.75;;;4.55;;
7171;SDS011;3627;46.544;14.944;2023-06-24T06:20:07;6.45;;;4.82;;
7171;SDS011;3627;46.544;14.944;2023-06-24T06:22:34;7.25;;;4.72;;
7171;SDS011;3627;46.544;14.944;2023-06-24T06:25:04;5.68;;;4.90;;
7171;SDS011;3627;46.544;14.944;2023-06-24T06:27:31;6.97;;;4.88;;
7171;SDS011;3627;46.544;14.944;2023-06-24T06:29:57;7.32;;;4.60;;
7171;SDS011;3627;46.544;14.944;2023-06-24T06:32:24;6.80;;;4.20;;
7171;SDS011;3627;46.544;14.944;2023-06-24T06:34:50;6.65;;;3.83;;
7171;SDS011;3627;46.544;14.944;2023-06-24T06:37:17;6.22;;;3.95;;
7171;SDS011;3627;46.544;14.944;2023-06-24T06:39:43;4.35;;;3.95;;
7171;SDS011;3627;46.544;14.944;2023-06-24T06:42:11;6.65;;;3.88;;
7171;SDS011;3627;46.544;14.944;2023-06-24T06:44:39;5.22;;;3.90;;
7171;SDS011;3627;46.544;14.944;2023-06-24T06:47:06;5.05;;;4.20;;
7171;SDS011;3627;46.544;14.944;2023-06-24T06:49:33;5.05;;;3.75;;
7171;SDS011;3627;46.544;14.944;2023-06-24T06:51:59;4.35;;;3.78;;
7171;SDS011;3627;46.544;14.944;2023-06-24T06:54:25;5.82;;;3.65;;
7171;SDS011;3627;46.544;14.944;2023-06-24T06:56:52;3.83;;;3.53;;
7171;SDS011;3627;46.544;14.944;2023-06-24T06:59:20;4.13;;;3.70;;
7171;SDS011;3627;46.544;14.944;2023-06-24T07:01:46;5.72;;;3.58;;
7171;SDS011;3627;46.544;14.944;2023-06-24T07:04:13;4.00;;;3.38;;
7171;SDS011;3627;46.544;14.944;2023-06-24T07:06:39;4.35;;;3.45;;
7171;SDS011;3627;46.544;14.944;2023-06-24T07:09:06;4.40;;;3.97;;
7171;SDS011;3627;46.544;14.944;2023-06-24T07:11:32;3.88;;;3.40;;
7171;SDS011;3627;46.544;14.944;2023-06-24T07:13:59;4.03;;;3.40;;
7171;SDS011;3627;46.544;14.944;2023-06-24T07:16:26;4.55;;;3.40;;
7171;SDS011;3627;46.544;14.944;2023-06-24T07:18:53;3.80;;;3.50;;
7171;SDS011;3627;46.544;14.944;2023-06-24T07:21:19;4.30;;;3.33;;
7171;SDS011;3627;46.544;14.944;2023-06-24T07:23:46;3.55;;;2.95;;
7171;SDS011;3627;46.544;14.944;2023-06-24T07:26:12;4.47;;;3.28;;
7171;SDS011;3627;46.544;14.944;2023-06-24T07:28:39;3.80;;;3.38;;
7171;SDS011;3627;46.544;14.944;2023-06-24T07:31:05;7.78;;;3.53;;
7171;SDS011;3627;46.544;14.944;2023-06-24T07:33:33;4.53;;;2.90;;
7171;SDS011;3627;46.544;14.944;2023-06-24T07:36:00;4.38;;;3.47;;
7171;SDS011;3627;46.544;14.944;2023-06-24T07:38:27;3.60;;;3.30;;
7171;SDS011;3627;46.544;14.944;2023-06-24T07:40:55;6.20;;;3.72;;
7171;SDS011;3627;46.544;14.944;2023-06-24T07:43:21;7.38;;;3.42;;
7171;SDS011;3627;46.544;14.944;2023-06-24T07:45:47;3.83;;;3.35;;
7171;SDS011;3627;46.544;14.944;2023-06-24T07:48:14;4.43;;;3.03;;
7171;SDS011;3627;46.544;14.944;2023-06-24T07:50:42;4.75;;;3.25;;
7171;SDS011;3627;46.544;14.944;2023-06-24T07:53:08;3.78;;;3.38;;
7171;SDS011;3627;46.544;14.944;2023-06-24T07:55:35;3.70;;;2.95;;
7171;SDS011;3627;46.544;14.944;2023-06-24T07:58:01;3.33;;;3.00;;
7171;SDS011;3627;46.544;14.944;2023-06-24T08:00:28;4.03;;;3.60;;
7171;SDS011;3627;46.544;14.944;2023-06-24T08:02:55;4.28;;;3.67;;
7171;SDS011;3627;46.544;14.944;2023-06-24T08:05:21;5.68;;;3.65;;
7171;SDS011;3627;46.544;14.944;2023-06-24T08:07:50;4.35;;;3.00;;
7171;SDS011;3627;46.544;14.944;2023-06-24T08:10:17;5.47;;;4.00;;
7171;SDS011;3627;46.544;14.944;2023-06-24T08:12:43;3.50;;;3.20;;
7171;SDS011;3627;46.544;14.944;2023-06-24T08:15:10;3.78;;;3.38;;
7171;SDS011;3627;46.544;14.944;2023-06-24T08:17:36;4.45;;;3.35;;
7171;SDS011;3627;46.544;14.944;2023-06-24T08:20:03;3.88;;;3.45;;
7171;SDS011;3627;46.544;14.944;2023-06-24T08:22:29;5.13;;;2.92;;
7171;SDS011;3627;46.544;14.944;2023-06-24T08:24:57;3.58;;;2.95;;
7171;SDS011;3627;46.544;14.944;2023-06-24T08:27:24;3.13;;;2.58;;
7171;SDS011;3627;46.544;14.944;2023-06-24T08:29:50;3.20;;;2.90;;
7171;SDS011;3627;46.544;14.944;2023-06-24T08:32:17;3.95;;;2.55;;
7171;SDS011;3627;46.544;14.944;2023-06-24T08:34:43;3.35;;;2.45;;
7171;SDS011;3627;46.544;14.944;2023-06-24T08:37:10;3.15;;;2.85;;
7171;SDS011;3627;46.544;14.944;2023-06-24T08:39:37;3.15;;;2.50;;
7171;SDS011;3627;46.544;14.944;2023-06-24T08:42:05;4.25;;;2.55;;
7171;SDS011;3627;46.544;14.944;2023-06-24T08:44:31;4.10;;;2.55;;
7171;SDS011;3627;46.544;14.944;2023-06-24T08:46:58;3.97;;;2.70;;
7171;SDS011;3627;46.544;14.944;2023-06-24T08:49:27;4.53;;;2.60;;
7171;SDS011;3627;46.544;14.944;2023-06-24T08:51:55;3.67;;;2.33;;
7171;SDS011;3627;46.544;14.944;2023-06-24T08:54:24;3.22;;;2.65;;
7171;SDS011;3627;46.544;14.944;2023-06-24T08:56:52;3.08;;;2.20;;
7171;SDS011;3627;46.544;14.944;2023-06-24T08:59:20;3.78;;;2.20;;
7171;SDS011;3627;46.544;14.944;2023-06-24T09:01:47;2.60;;;2.40;;
7171;SDS011;3627;46.544;14.944;2023-06-24T09:04:14;3.30;;;2.30;;
7171;SDS011;3627;46.544;14.944;2023-06-24T09:06:40;3.58;;;2.25;;
7171;SDS011;3627;46.544;14.944;2023-06-24T09:09:16;2.80;;;2.55;;
7171;SDS011;3627;46.544;14.944;2023-06-24T09:11:45;2.92;;;2.33;;
7171;SDS011;3627;46.544;14.944;2023-06-24T09:14:17;6.82;;;2.20;;
7171;SDS011;3627;46.544;14.944;2023-06-24T09:16:51;3.35;;;2.88;;
7171;SDS011;3627;46.544;14.944;2023-06-24T09:19:19;2.90;;;2.60;;
7171;SDS011;3627;46.544;14.944;2023-06-24T09:21:46;3.00;;;2.63;;
7171;SDS011;3627;46.544;14.944;2023-06-24T09:24:12;2.72;;;2.40;;
7171;SDS011;3627;46.544;14.944;2023-06-24T09:26:41;2.80;;;2.60;;
7171;SDS011;3627;46.544;14.944;2023-06-24T09:29:08;2.50;;;2.25;;
7171;SDS011;3627;46.544;14.944;2023-06-24T09:31:34;2.88;;;2.28;;
7171;SDS011;3627;46.544;14.944;2023-06-24T09:34:02;3.38;;;2.58;;
7171;SDS011;3627;46.544;14.944;2023-06-24T09:36:28;4.32;;;2.50;;
7171;SDS011;3627;46.544;14.944;2023-06-24T09:38:55;3.70;;;2.40;;
7171;SDS011;3627;46.544;14.944;2023-06-24T09:41:28;2.80;;;2.42;;
7171;SDS011;3627;46.544;14.944;2023-06-24T09:43:54;4.32;;;3.17;;
7171;SDS011;3627;46.544;14.944;2023-06-24T09:46:24;4.03;;;3.25;;
7171;SDS011;3627;46.544;14.944;2023-06-24T09:48:50;5.60;;;3.88;;
7171;SDS011;3627;46.544;14.944;2023-06-24T09:51:18;2.72;;;2.45;;
7171;SDS011;3627;46.544;14.944;2023-06-24T09:53:45;2.60;;;2.40;;
7171;SDS011;3627;46.544;14.944;2023-06-24T09:56:11;3.75;;;2.50;;
7171;SDS011;3627;46.544;14.944;2023-06-24T09:58:40;3.85;;;2.90;;
7171;SDS011;3627;46.544;14.944;2023-06-24T10:01:07;3.20;;;2.92;;
7171;SDS011;3627;46.544;14.944;2023-06-24T10:03:34;3.22;;;2.92;;
7171;SDS011;3627;46.544;14.944;2023-06-24T10:06:02;3.17;;;2.88;;
7171;SDS011;3627;46.544;14.944;2023-06-24T10:08:30;2.47;;;2.28;;
7171;SDS011;3627;46.544;14.944;2023-06-24T10:10:57;4.32;;;2.88;;
7171;SDS011;3627;46.544;14.944;2023-06-24T10:13:23;5.53;;;2.70;;
7171;SDS011;3627;46.544;14.944;2023-06-24T10:15:51;3.67;;;2.35;;
7171;SDS011;3627;46.544;14.944;2023-06-24T10:21:08;2.67;;;2.38;;
7171;SDS011;3627;46.544;14.944;2023-06-24T10:23:40;3.47;;;2.53;;
7171;SDS011;3627;46.544;14.944;2023-06-24T10:26:08;4.78;;;2.50;;
7171;SDS011;3627;46.544;14.944;2023-06-24T10:31:15;4.18;;;2.90;;
7171;SDS011;3627;46.544;14.944;2023-06-24T10:33:42;3.22;;;2.92;;
7171;SDS011;3627;46.544;14.944;2023-06-24T10:38:56;6.63;;;3.65;;
7171;SDS011;3627;46.544;14.944;2023-06-24T10:41:22;5.25;;;3.05;;
7171;SDS011;3627;46.544;14.944;2023-06-24T10:43:51;8.68;;;4.00;;
7171;SDS011;3627;46.544;14.944;2023-06-24T10:46:22;4.43;;;3.22;;
7171;SDS011;3627;46.544;14.944;2023-06-24T10:48:52;4.50;;;3.22;;
7171;SDS011;3627;46.544;14.944;2023-06-24T10:51:18;4.93;;;3.90;;
7171;SDS011;3627;46.544;14.944;2023-06-24T10:53:45;4.15;;;3.63;;
7171;SDS011;3627;46.544;14.944;2023-06-24T10:56:13;4.28;;;2.97;;
7171;SDS011;3627;46.544;14.944;2023-06-24T10:58:40;2.20;;;2.00;;
7171;SDS011;3627;46.544;14.944;2023-06-24T11:01:07;2.30;;;2.10;;
7171;SDS011;3627;46.544;14.944;2023-06-24T11:03:34;3.00;;;2.40;;
7171;SDS011;3627;46.544;14.944;2023-06-24T11:06:03;3.08;;;2.00;;
7171;SDS011;3627;46.544;14.944;2023-06-24T11:08:30;2.53;;;2.33;;
7171;SDS011;3627;46.544;14.944;2023-06-24T11:10:56;2.97;;;2.00;;
7171;SDS011;3627;46.544;14.944;2023-06-24T11:13:24;2.83;;;2.35;;
7171;SDS011;3627;46.544;14.944;2023-06-24T11:15:51;2.35;;;2.08;;
7171;SDS011;3627;46.544;14.944;2023-06-24T11:18:18;2.50;;;2.30;;
7171;SDS011;3627;46.544;14.944;2023-06-24T11:20:45;3.10;;;2.30;;
7171;SDS011;3627;46.544;14.944;2023-06-24T11:23:11;3.65;;;2.40;;
7171;SDS011;3627;46.544;14.944;2023-06-24T11:25:39;3.38;;;2.30;;
7171;SDS011;3627;46.544;14.944;2023-06-24T11:28:11;2.58;;;2.20;;
7171;SDS011;3627;46.544;14.944;2023-06-24T11:30:39;5.40;;;2.38;;
7171;SDS011;3627;46.544;14.944;2023-06-24T11:33:06;2.45;;;2.00;;
7171;SDS011;3627;46.544;14.944;2023-06-24T11:35:32;6.05;;;2.90;;
7171;SDS011;3627;46.544;14.944;2023-06-24T11:38:00;2.92;;;2.40;;
7171;SDS011;3627;46.544;14.944;2023-06-24T11:40:26;4.72;;;2.80;;
7171;SDS011;3627;46.544;14.944;2023-06-24T11:42:53;2.20;;;2.00;;
7171;SDS011;3627;46.544;14.944;2023-06-24T11:45:20;2.72;;;2.22;;
7171;SDS011;3627;46.544;14.944;2023-06-24T11:47:48;6.43;;;5.43;;
7171;SDS011;3627;46.544;14.944;2023-06-24T11:50:15;3.13;;;2.78;;
7171;SDS011;3627;46.544;14.944;2023-06-24T11:52:41;3.83;;;2.40;;
7171;SDS011;3627;46.544;14.944;2023-06-24T11:55:12;3.65;;;2.47;;
7171;SDS011;3627;46.544;14.944;2023-06-24T11:57:51;3.08;;;2.72;;
7171;SDS011;3627;46.544;14.944;2023-06-24T12:00:19;4.07;;;2.30;;
7171;SDS011;3627;46.544;14.944;2023-06-24T12:02:45;4.75;;;2.33;;
7171;SDS011;3627;46.544;14.944;2023-06-24T12:05:13;2.63;;;2.42;;
7171;SDS011;3627;46.544;14.944;2023-06-24T12:07:39;2.50;;;2.30;;
7171;SDS011;3627;46.544;14.944;2023-06-24T12:10:07;3.72;;;2.50;;
7171;SDS011;3627;46.544;14.944;2023-06-24T12:12:34;2.58;;;2.38;;
7171;SDS011;3627;46.544;14.944;2023-06-24T12:15:00;3.40;;;2.13;;
7171;SDS011;3627;46.544;14.944;2023-06-24T12:17:27;2.05;;;1.85;;
7171;SDS011;3627;46.544;14.944;2023-06-24T12:19:53;1.90;;;1.80;;
7171;SDS011;3627;46.544;14.944;2023-06-24T12:22:21;2.45;;;2.15;;
7171;SDS011;3627;46.544;14.944;2023-06-24T12:24:47;3.33;;;2.45;;
7171;SDS011;3627;46.544;14.944;2023-06-24T12:27:14;2.33;;;2.10;;
7171;SDS011;3627;46.544;14.944;2023-06-24T12:29:40;2.55;;;2.28;;
7171;SDS011;3627;46.544;14.944;2023-06-24T12:32:07;3.55;;;2.20;;
7171;SDS011;3627;46.544;14.944;2023-06-24T12:34:33;4.38;;;2.50;;
7171;SDS011;3627;46.544;14.944;2023-06-24T12:37:00;4.57;;;2.38;;
7171;SDS011;3627;46.544;14.944;2023-06-24T12:39:28;2.10;;;1.90;;
7171;SDS011;3627;46.544;14.944;2023-06-24T12:41:54;2.60;;;2.22;;
7171;SDS011;3627;46.544;14.944;2023-06-24T12:44:20;3.05;;;2.22;;
7171;SDS011;3627;46.544;14.944;2023-06-24T12:46:47;4.30;;;2.70;;
7171;SDS011;3627;46.544;14.944;2023-06-24T12:49:13;4.55;;;2.28;;
7171;SDS011;3627;46.544;14.944;2023-06-24T12:51:40;3.08;;;2.20;;
7171;SDS011;3627;46.544;14.944;2023-06-24T12:54:06;2.60;;;1.85;;
7171;SDS011;3627;46.544;14.944;2023-06-24T12:56:34;2.60;;;2.05;;
7171;SDS011;3627;46.544;14.944;2023-06-24T12:59:00;3.33;;;2.03;;
7171;SDS011;3627;46.544;14.944;2023-06-24T13:01:27;3.25;;;2.20;;
7171;SDS011;3627;46.544;14.944;2023-06-24T13:03:54;2.28;;;1.70;;
7171;SDS011;3627;46.544;14.944;2023-06-24T13:06:20;1.95;;;1.75;;
7171;SDS011;3627;46.544;14.944;2023-06-24T13:08:47;1.60;;;1.50;;
7171;SDS011;3627;46.544;14.944;2023-06-24T13:11:13;3.45;;;1.80;;
7171;SDS011;3627;46.544;14.944;2023-06-24T13:13:41;2.05;;;1.85;;
7171;SDS011;3627;46.544;14.944;2023-06-24T13:16:07;1.80;;;1.70;;
7171;SDS011;3627;46.544;14.944;2023-06-24T13:18:34;1.85;;;1.73;;
7171;SDS011;3627;46.544;14.944;2023-06-24T13:21:00;1.77;;;1.67;;
7171;SDS011;3627;46.544;14.944;2023-06-24T13:23:27;1.60;;;1.48;;
7171;SDS011;3627;46.544;14.944;2023-06-24T13:25:53;2.03;;;1.08;;
7171;SDS011;3627;46.544;14.944;2023-06-24T13:28:19;2.50;;;1.70;;
7171;SDS011;3627;46.544;14.944;2023-06-24T13:30:47;1.25;;;1.10;;
7171;SDS011;3627;46.544;14.944;2023-06-24T13:33:15;8.57;;;2.28;;
7171;SDS011;3627;46.544;14.944;2023-06-24T13:35:41;2.03;;;1.10;;
7171;SDS011;3627;46.544;14.944;2023-06-24T13:38:09;1.48;;;1.25;;
7171;SDS011;3627;46.544;14.944;2023-06-24T13:40:37;2.05;;;1.10;;
7171;SDS011;3627;46.544;14.944;2023-06-24T13:43:03;1.17;;;1.10;;
7171;SDS011;3627;46.544;14.944;2023-06-24T13:45:30;0.93;;;0.93;;
7171;SDS011;3627;46.544;14.944;2023-06-24T13:47:57;1.02;;;1.02;;
7171;SDS011;3627;46.544;14.944;2023-06-24T13:50:24;0.85;;;0.70;;
7171;SDS011;3627;46.544;14.944;2023-06-24T13:52:50;0.50;;;0.50;;
7171;SDS011;3627;46.544;14.944;2023-06-24T13:55:16;1.45;;;0.57;;
7171;SDS011;3627;46.544;14.944;2023-06-24T13:57:43;0.50;;;0.50;;
7171;SDS011;3627;46.544;14.944;2023-06-24T14:00:10;1.60;;;0.52;;
7171;SDS011;3627;46.544;14.944;2023-06-24T14:02:36;0.70;;;0.70;;
7171;SDS011;3627;46.544;14.944;2023-06-24T14:05:05;0.93;;;0.90;;
7171;SDS011;3627;46.544;14.944;2023-06-24T14:07:31;0.90;;;0.80;;
7171;SDS011;3627;46.544;14.944;2023-06-24T14:09:58;0.73;;;0.65;;
7171;SDS011;3627;46.544;14.944;2023-06-24T14:12:24;0.88;;;0.40;;
7171;SDS011;3627;46.544;14.944;2023-06-24T14:14:51;0.40;;;0.40;;
7171;SDS011;3627;46.544;14.944;2023-06-24T14:17:17;0.30;;;0.30;;
7171;SDS011;3627;46.544;14.944;2023-06-24T14:19:43;0.60;;;0.60;;
7171;SDS011;3627;46.544;14.944;2023-06-24T14:22:12;0.60;;;0.60;;
7171;SDS011;3627;46.544;14.944;2023-06-24T14:24:39;0.75;;;0.60;;
7171;SDS011;3627;46.544;14.944;2023-06-24T14:27:05;0.82;;;0.70;;
7171;SDS011;3627;46.544;14.944;2023-06-24T14:29:32;0.30;;;0.30;;
7171;SDS011;3627;46.544;14.944;2023-06-24T14:31:58;1.10;;;0.50;;
7171;SDS011;3627;46.544;14.944;2023-06-24T14:34:25;0.85;;;0.50;;
7171;SDS011;3627;46.544;14.944;2023-06-24T14:36:51;0.50;;;0.50;;
7171;SDS011;3627;46.544;14.944;2023-06-24T14:39:19;0.45;;;0.45;;
7171;SDS011;3627;46.544;14.944;2023-06-24T14:41:45;0.50;;;0.50;;
7171;SDS011;3627;46.544;14.944;2023-06-24T14:44:11;0.52;;;0.52;;
7171;SDS011;3627;46.544;14.944;2023-06-24T14:46:38;9.93;;;1.55;;
7171;SDS011;3627;46.544;14.944;2023-06-24T14:49:04;1.00;;;0.70;;
7171;SDS011;3627;46.544;14.944;2023-06-24T14:51:30;0.70;;;0.70;;
7171;SDS011;3627;46.544;14.944;2023-06-24T14:53:57;2.58;;;0.65;;
7171;SDS011;3627;46.544;14.944;2023-06-24T14:56:24;0.70;;;0.70;;
7171;SDS011;3627;46.544;14.944;2023-06-24T14:58:51;0.47;;;0.47;;
7171;SDS011;3627;46.544;14.944;2023-06-24T15:01:17;0.60;;;0.60;;
7171;SDS011;3627;46.544;14.944;2023-06-24T15:03:44;0.70;;;0.70;;
7171;SDS011;3627;46.544;14.944;2023-06-24T15:06:10;0.73;;;0.73;;
7171;SDS011;3627;46.544;14.944;2023-06-24T15:08:36;0.80;;;0.80;;
7171;SDS011;3627;46.544;14.944;2023-06-24T15:11:03;0.70;;;0.60;;